sensor_id;sensor_type;location;lat;lon;timestamp;P1;durP1;ratioP1;P2;durP2;ratioP2
72601;SDS011;60644;55.858;37.390;2022-09-03T00:07:50;3.05;;;0.65;;
72601;SDS011;60644;55.858;37.390;2022-09-03T00:10:48;2.10;;;0.30;;
72601;SDS011;60644;55.858;37.390;2022-09-03T00:13:26;2.63;;;0.65;;
72601;SDS011;60644;55.858;37.390;2022-09-03T00:15:57;3.22;;;0.47;;
72601;SDS011;60644;55.858;37.390;2022-09-03T00:18:27;4.28;;;0.55;;
72601;SDS011;60644;55.858;37.390;2022-09-03T00:20:58;3.45;;;0.55;;
72601;SDS011;60644;55.858;37.390;2022-09-03T00:23:34;3.85;;;0.50;;
72601;SDS011;60644;55.858;37.390;2022-09-03T00:28:39;3.10;;;0.60;;
72601;SDS011;60644;55.858;37.390;2022-09-03T00:31:24;2.92;;;0.43;;
72601;SDS011;60644;55.858;37.390;2022-09-03T00:33:57;2.88;;;0.30;;
72601;SDS011;60644;55.858;37.390;2022-09-03T00:36:38;2.60;;;0.30;;
72601;SDS011;60644;55.858;37.390;2022-09-03T00:39:08;2.17;;;0.40;;
72601;SDS011;60644;55.858;37.390;2022-09-03T00:41:47;3.20;;;0.50;;
72601;SDS011;60644;55.858;37.390;2022-09-03T00:44:37;2.88;;;0.57;;
72601;SDS011;60644;55.858;37.390;2022-09-03T00:52:59;2.78;;;0.47;;
72601;SDS011;60644;55.858;37.390;2022-09-03T00:55:31;2.05;;;0.30;;
72601;SDS011;60644;55.858;37.390;2022-09-03T01:01:14;4.47;;;0.47;;
72601;SDS011;60644;55.858;37.390;2022-09-03T01:03:51;4.10;;;0.38;;
72601;SDS011;60644;55.858;37.390;2022-09-03T01:09:39;3.22;;;0.60;;
72601;SDS011;60644;55.858;37.390;2022-09-03T01:23:59;4.50;;;0.30;;
72601;SDS011;60644;55.858;37.390;2022-09-03T01:29:55;2.45;;;0.40;;
72601;SDS011;60644;55.858;37.390;2022-09-03T01:35:10;2.33;;;0.40;;
72601;SDS011;60644;55.858;37.390;2022-09-03T01:43:44;1.80;;;0.30;;
72601;SDS011;60644;55.858;37.390;2022-09-03T01:46:34;2.85;;;0.30;;
72601;SDS011;60644;55.858;37.390;2022-09-03T01:49:07;1.90;;;0.30;;
72601;SDS011;60644;55.858;37.390;2022-09-03T01:51:38;2.38;;;0.22;;
72601;SDS011;60644;55.858;37.390;2022-09-03T02:02:14;2.40;;;0.28;;
72601;SDS011;60644;55.858;37.390;2022-09-03T02:04:59;2.17;;;0.30;;
72601;SDS011;60644;55.858;37.390;2022-09-03T02:07:33;2.17;;;0.30;;
72601;SDS011;60644;55.858;37.390;2022-09-03T02:10:03;2.83;;;0.43;;
72601;SDS011;60644;55.858;37.390;2022-09-03T02:12:32;1.90;;;0.25;;
72601;SDS011;60644;55.858;37.390;2022-09-03T02:15:00;2.08;;;0.30;;
72601;SDS011;60644;55.858;37.390;2022-09-03T02:17:30;3.33;;;0.50;;
72601;SDS011;60644;55.858;37.390;2022-09-03T02:19:58;2.63;;;0.35;;
72601;SDS011;60644;55.858;37.390;2022-09-03T02:22:30;3.40;;;0.50;;
72601;SDS011;60644;55.858;37.390;2022-09-03T02:24:57;3.03;;;0.40;;
72601;SDS011;60644;55.858;37.390;2022-09-03T02:27:24;3.17;;;0.35;;
72601;SDS011;60644;55.858;37.390;2022-09-03T02:29:50;2.33;;;0.40;;
72601;SDS011;60644;55.858;37.390;2022-09-03T02:32:16;2.13;;;0.40;;
72601;SDS011;60644;55.858;37.390;2022-09-03T02:34:42;2.40;;;0.40;;
72601;SDS011;60644;55.858;37.390;2022-09-03T02:37:15;1.55;;;0.30;;
72601;SDS011;60644;55.858;37.390;2022-09-03T02:39:42;2.00;;;0.30;;
72601;SDS011;60644;55.858;37.390;2022-09-03T02:42:09;2.22;;;0.32;;
72601;SDS011;60644;55.858;37.390;2022-09-03T02:44:41;2.33;;;0.40;;
72601;SDS011;60644;55.858;37.390;2022-09-03T02:47:12;2.22;;;0.50;;
72601;SDS011;60644;55.858;37.390;2022-09-03T02:49:39;3.03;;;0.60;;
72601;SDS011;60644;55.858;37.390;2022-09-03T02:52:06;2.72;;;0.40;;
72601;SDS011;60644;55.858;37.390;2022-09-03T02:54:34;2.15;;;0.20;;
72601;SDS011;60644;55.858;37.390;2022-09-03T02:57:06;3.70;;;0.40;;
72601;SDS011;60644;55.858;37.390;2022-09-03T02:59:33;2.80;;;0.45;;
72601;SDS011;60644;55.858;37.390;2022-09-03T03:01:59;2.58;;;0.40;;
72601;SDS011;60644;55.858;37.390;2022-09-03T03:04:25;2.35;;;0.40;;
72601;SDS011;60644;55.858;37.390;2022-09-03T03:06:51;3.45;;;0.75;;
72601;SDS011;60644;55.858;37.390;2022-09-03T03:09:17;1.40;;;0.30;;
72601;SDS011;60644;55.858;37.390;2022-09-03T03:11:43;2.92;;;0.40;;
72601;SDS011;60644;55.858;37.390;2022-09-03T03:14:10;2.22;;;0.32;;
72601;SDS011;60644;55.858;37.390;2022-09-03T03:16:35;3.47;;;0.40;;
72601;SDS011;60644;55.858;37.390;2022-09-03T03:19:07;3.43;;;0.60;;
72601;SDS011;60644;55.858;37.390;2022-09-03T03:21:33;3.38;;;0.68;;
72601;SDS011;60644;55.858;37.390;2022-09-03T03:24:00;2.22;;;0.40;;
72601;SDS011;60644;55.858;37.390;2022-09-03T03:26:27;2.03;;;0.40;;
72601;SDS011;60644;55.858;37.390;2022-09-03T03:28:57;2.15;;;0.50;;
72601;SDS011;60644;55.858;37.390;2022-09-03T03:31:25;3.23;;;0.60;;
72601;SDS011;60644;55.858;37.390;2022-09-03T03:33:52;2.17;;;0.57;;
72601;SDS011;60644;55.858;37.390;2022-09-03T03:36:20;3.25;;;0.60;;
72601;SDS011;60644;55.858;37.390;2022-09-03T03:38:48;2.20;;;0.50;;
72601;SDS011;60644;55.858;37.390;2022-09-03T03:41:20;3.10;;;0.50;;
72601;SDS011;60644;55.858;37.390;2022-09-03T03:43:58;2.50;;;0.50;;
72601;SDS011;60644;55.858;37.390;2022-09-03T03:46:34;4.25;;;1.40;;
72601;SDS011;60644;55.858;37.390;2022-09-03T03:49:04;6.53;;;1.98;;
72601;SDS011;60644;55.858;37.390;2022-09-03T03:51:33;5.88;;;2.20;;
72601;SDS011;60644;55.858;37.390;2022-09-03T03:54:00;3.63;;;1.20;;
72601;SDS011;60644;55.858;37.390;2022-09-03T03:56:26;3.63;;;0.60;;
72601;SDS011;60644;55.858;37.390;2022-09-03T03:58:53;2.92;;;0.63;;
72601;SDS011;60644;55.858;37.390;2022-09-03T04:01:20;5.75;;;3.03;;
72601;SDS011;60644;55.858;37.390;2022-09-03T04:03:48;6.88;;;2.63;;
72601;SDS011;60644;55.858;37.390;2022-09-03T04:06:14;6.17;;;2.87;;
72601;SDS011;60644;55.858;37.390;2022-09-03T04:08:42;3.95;;;1.33;;
72601;SDS011;60644;55.858;37.390;2022-09-03T04:11:10;4.07;;;1.30;;
72601;SDS011;60644;55.858;37.390;2022-09-03T04:13:38;4.78;;;1.20;;
72601;SDS011;60644;55.858;37.390;2022-09-03T04:16:39;3.53;;;0.80;;
72601;SDS011;60644;55.858;37.390;2022-09-03T04:18:58;3.58;;;0.80;;
72601;SDS011;60644;55.858;37.390;2022-09-03T04:21:25;4.15;;;0.80;;
72601;SDS011;60644;55.858;37.390;2022-09-03T04:23:52;5.53;;;0.95;;
72601;SDS011;60644;55.858;37.390;2022-09-03T04:26:26;4.60;;;0.70;;
72601;SDS011;60644;55.858;37.390;2022-09-03T04:28:56;3.63;;;0.75;;
72601;SDS011;60644;55.858;37.390;2022-09-03T04:31:23;3.35;;;0.80;;
72601;SDS011;60644;55.858;37.390;2022-09-03T04:33:49;3.45;;;1.02;;
72601;SDS011;60644;55.858;37.390;2022-09-03T04:36:17;4.30;;;1.10;;
72601;SDS011;60644;55.858;37.390;2022-09-03T04:38:46;4.63;;;1.17;;
72601;SDS011;60644;55.858;37.390;2022-09-03T04:41:14;3.85;;;1.00;;
72601;SDS011;60644;55.858;37.390;2022-09-03T04:43:45;4.20;;;1.63;;
72601;SDS011;60644;55.858;37.390;2022-09-03T04:46:13;3.72;;;0.98;;
72601;SDS011;60644;55.858;37.390;2022-09-03T04:48:40;4.25;;;1.00;;
72601;SDS011;60644;55.858;37.390;2022-09-03T04:51:07;4.43;;;1.07;;
72601;SDS011;60644;55.858;37.390;2022-09-03T04:53:36;3.05;;;0.80;;
72601;SDS011;60644;55.858;37.390;2022-09-03T04:56:11;4.90;;;0.93;;
72601;SDS011;60644;55.858;37.390;2022-09-03T04:58:38;4.57;;;1.20;;
72601;SDS011;60644;55.858;37.390;2022-09-03T05:01:08;2.70;;;0.73;;
72601;SDS011;60644;55.858;37.390;2022-09-03T05:03:35;4.18;;;1.10;;
72601;SDS011;60644;55.858;37.390;2022-09-03T05:06:01;3.60;;;1.00;;
72601;SDS011;60644;55.858;37.390;2022-09-03T05:08:30;7.15;;;1.00;;
72601;SDS011;60644;55.858;37.390;2022-09-03T05:10:59;4.03;;;1.23;;
72601;SDS011;60644;55.858;37.390;2022-09-03T05:13:26;3.78;;;1.10;;
72601;SDS011;60644;55.858;37.390;2022-09-03T05:15:57;5.80;;;1.20;;
72601;SDS011;60644;55.858;37.390;2022-09-03T05:18:24;4.78;;;1.20;;
72601;SDS011;60644;55.858;37.390;2022-09-03T05:23:27;4.65;;;1.10;;
72601;SDS011;60644;55.858;37.390;2022-09-03T05:25:58;4.57;;;1.10;;
72601;SDS011;60644;55.858;37.390;2022-09-03T05:28:25;3.37;;;1.00;;
72601;SDS011;60644;55.858;37.390;2022-09-03T05:30:59;3.97;;;1.30;;
72601;SDS011;60644;55.858;37.390;2022-09-03T05:33:26;5.95;;;2.25;;
72601;SDS011;60644;55.858;37.390;2022-09-03T05:36:06;4.15;;;1.00;;
72601;SDS011;60644;55.858;37.390;2022-09-03T05:38:34;3.35;;;0.90;;
72601;SDS011;60644;55.858;37.390;2022-09-03T05:41:01;3.23;;;0.87;;
72601;SDS011;60644;55.858;37.390;2022-09-03T05:43:29;3.53;;;1.00;;
72601;SDS011;60644;55.858;37.390;2022-09-03T05:48:25;3.80;;;1.02;;
72601;SDS011;60644;55.858;37.390;2022-09-03T05:51:09;3.30;;;0.90;;
72601;SDS011;60644;55.858;37.390;2022-09-03T05:53:42;3.30;;;0.80;;
72601;SDS011;60644;55.858;37.390;2022-09-03T05:56:11;4.00;;;1.10;;
72601;SDS011;60644;55.858;37.390;2022-09-03T05:58:50;2.80;;;0.70;;
72601;SDS011;60644;55.858;37.390;2022-09-03T06:01:18;3.15;;;0.70;;
72601;SDS011;60644;55.858;37.390;2022-09-03T06:03:47;5.25;;;1.10;;
72601;SDS011;60644;55.858;37.390;2022-09-03T06:06:19;3.20;;;0.70;;
72601;SDS011;60644;55.858;37.390;2022-09-03T06:08:56;3.10;;;0.80;;
72601;SDS011;60644;55.858;37.390;2022-09-03T06:11:27;3.33;;;0.63;;
72601;SDS011;60644;55.858;37.390;2022-09-03T06:13:55;3.40;;;0.75;;
72601;SDS011;60644;55.858;37.390;2022-09-03T06:16:22;2.97;;;0.70;;
72601;SDS011;60644;55.858;37.390;2022-09-03T06:18:48;4.23;;;1.30;;
72601;SDS011;60644;55.858;37.390;2022-09-03T06:21:15;3.60;;;1.00;;
72601;SDS011;60644;55.858;37.390;2022-09-03T06:23:41;4.13;;;0.82;;
72601;SDS011;60644;55.858;37.390;2022-09-03T06:26:11;4.38;;;0.85;;
72601;SDS011;60644;55.858;37.390;2022-09-03T06:28:39;3.10;;;0.80;;
72601;SDS011;60644;55.858;37.390;2022-09-03T06:31:08;3.70;;;1.00;;
72601;SDS011;60644;55.858;37.390;2022-09-03T06:33:37;3.45;;;1.00;;
72601;SDS011;60644;55.858;37.390;2022-09-03T06:36:11;2.95;;;0.68;;
72601;SDS011;60644;55.858;37.390;2022-09-03T06:38:39;4.60;;;1.00;;
72601;SDS011;60644;55.858;37.390;2022-09-03T06:41:07;3.03;;;0.80;;
72601;SDS011;60644;55.858;37.390;2022-09-03T06:43:38;3.13;;;0.85;;
72601;SDS011;60644;55.858;37.390;2022-09-03T06:46:07;3.63;;;0.75;;
72601;SDS011;60644;55.858;37.390;2022-09-03T06:48:41;4.05;;;0.80;;
72601;SDS011;60644;55.858;37.390;2022-09-03T06:51:11;2.97;;;0.60;;
72601;SDS011;60644;55.858;37.390;2022-09-03T06:53:42;2.58;;;0.50;;
72601;SDS011;60644;55.858;37.390;2022-09-03T06:56:11;4.10;;;0.57;;
72601;SDS011;60644;55.858;37.390;2022-09-03T06:58:42;3.03;;;0.57;;
72601;SDS011;60644;55.858;37.390;2022-09-03T07:01:11;2.92;;;0.50;;
72601;SDS011;60644;55.858;37.390;2022-09-03T07:03:40;3.25;;;0.60;;
72601;SDS011;60644;55.858;37.390;2022-09-03T07:06:08;3.05;;;0.52;;
72601;SDS011;60644;55.858;37.390;2022-09-03T07:08:39;3.63;;;0.70;;
72601;SDS011;60644;55.858;37.390;2022-09-03T07:11:07;3.10;;;0.50;;
72601;SDS011;60644;55.858;37.390;2022-09-03T07:13:38;2.28;;;0.47;;
72601;SDS011;60644;55.858;37.390;2022-09-03T07:16:07;3.75;;;0.47;;
72601;SDS011;60644;55.858;37.390;2022-09-03T07:18:34;3.70;;;0.63;;
72601;SDS011;60644;55.858;37.390;2022-09-03T07:21:02;1.88;;;0.40;;
72601;SDS011;60644;55.858;37.390;2022-09-03T07:23:30;2.55;;;0.30;;
72601;SDS011;60644;55.858;37.390;2022-09-03T07:25:58;2.13;;;0.40;;
72601;SDS011;60644;55.858;37.390;2022-09-03T07:28:27;1.70;;;0.43;;
72601;SDS011;60644;55.858;37.390;2022-09-03T07:30:59;2.72;;;0.40;;
72601;SDS011;60644;55.858;37.390;2022-09-03T07:33:28;2.63;;;0.47;;
72601;SDS011;60644;55.858;37.390;2022-09-03T07:35:55;3.60;;;0.40;;
72601;SDS011;60644;55.858;37.390;2022-09-03T07:38:26;2.75;;;0.70;;
72601;SDS011;60644;55.858;37.390;2022-09-03T07:40:58;2.07;;;0.60;;
72601;SDS011;60644;55.858;37.390;2022-09-03T07:43:26;2.60;;;0.47;;
72601;SDS011;60644;55.858;37.390;2022-09-03T07:45:53;3.58;;;0.50;;
72601;SDS011;60644;55.858;37.390;2022-09-03T07:48:20;2.20;;;0.57;;
72601;SDS011;60644;55.858;37.390;2022-09-03T07:50:46;4.20;;;0.77;;
72601;SDS011;60644;55.858;37.390;2022-09-03T07:53:14;1.93;;;0.40;;
72601;SDS011;60644;55.858;37.390;2022-09-03T07:55:41;5.30;;;1.05;;
72601;SDS011;60644;55.858;37.390;2022-09-03T07:58:11;2.90;;;0.60;;
72601;SDS011;60644;55.858;37.390;2022-09-03T08:00:38;4.55;;;0.80;;
72601;SDS011;60644;55.858;37.390;2022-09-03T08:03:05;3.55;;;0.57;;
72601;SDS011;60644;55.858;37.390;2022-09-03T08:05:33;2.63;;;0.40;;
72601;SDS011;60644;55.858;37.390;2022-09-03T08:08:03;2.03;;;0.30;;
72601;SDS011;60644;55.858;37.390;2022-09-03T08:10:33;2.72;;;0.40;;
72601;SDS011;60644;55.858;37.390;2022-09-03T08:13:00;1.98;;;0.30;;
72601;SDS011;60644;55.858;37.390;2022-09-03T08:15:30;3.75;;;0.57;;
72601;SDS011;60644;55.858;37.390;2022-09-03T08:17:57;2.73;;;0.40;;
72601;SDS011;60644;55.858;37.390;2022-09-03T08:20:23;2.03;;;0.70;;
72601;SDS011;60644;55.858;37.390;2022-09-03T08:22:49;2.95;;;0.40;;
72601;SDS011;60644;55.858;37.390;2022-09-03T08:25:15;3.25;;;0.70;;
72601;SDS011;60644;55.858;37.390;2022-09-03T08:27:41;2.60;;;0.47;;
72601;SDS011;60644;55.858;37.390;2022-09-03T08:30:07;2.08;;;0.40;;
72601;SDS011;60644;55.858;37.390;2022-09-03T08:32:37;3.15;;;0.70;;
72601;SDS011;60644;55.858;37.390;2022-09-03T08:35:04;2.33;;;0.60;;
72601;SDS011;60644;55.858;37.390;2022-09-03T08:37:31;5.60;;;1.30;;
72601;SDS011;60644;55.858;37.390;2022-09-03T08:39:58;4.53;;;1.05;;
72601;SDS011;60644;55.858;37.390;2022-09-03T08:45:12;3.45;;;0.90;;
72601;SDS011;60644;55.858;37.390;2022-09-03T08:47:43;3.53;;;1.00;;
72601;SDS011;60644;55.858;37.390;2022-09-03T08:50:21;4.03;;;0.90;;
72601;SDS011;60644;55.858;37.390;2022-09-03T09:08:40;1.38;;;0.20;;
72601;SDS011;60644;55.858;37.390;2022-09-03T09:11:20;1.50;;;0.20;;
72601;SDS011;60644;55.858;37.390;2022-09-03T09:22:08;2.72;;;0.30;;
72601;SDS011;60644;55.858;37.390;2022-09-03T09:24:40;1.92;;;0.20;;
72601;SDS011;60644;55.858;37.390;2022-09-03T09:27:07;2.92;;;0.20;;
72601;SDS011;60644;55.858;37.390;2022-09-03T09:29:35;1.10;;;0.20;;
72601;SDS011;60644;55.858;37.390;2022-09-03T09:32:03;1.95;;;0.30;;
72601;SDS011;60644;55.858;37.390;2022-09-03T09:34:35;3.53;;;0.30;;
72601;SDS011;60644;55.858;37.390;2022-09-03T09:37:04;1.40;;;0.20;;
72601;SDS011;60644;55.858;37.390;2022-09-03T09:39:33;1.08;;;0.20;;
72601;SDS011;60644;55.858;37.390;2022-09-03T09:42:07;1.77;;;0.20;;
72601;SDS011;60644;55.858;37.390;2022-09-03T09:44:36;1.33;;;0.20;;
72601;SDS011;60644;55.858;37.390;2022-09-03T09:47:07;2.28;;;0.30;;
72601;SDS011;60644;55.858;37.390;2022-09-03T09:49:37;2.13;;;0.40;;
72601;SDS011;60644;55.858;37.390;2022-09-03T09:52:16;1.77;;;0.30;;
72601;SDS011;60644;55.858;37.390;2022-09-03T09:54:42;1.77;;;0.20;;
72601;SDS011;60644;55.858;37.390;2022-09-03T09:57:16;2.17;;;0.30;;
72601;SDS011;60644;55.858;37.390;2022-09-03T09:59:48;1.63;;;0.28;;
72601;SDS011;60644;55.858;37.390;2022-09-03T10:05:00;1.73;;;0.30;;
72601;SDS011;60644;55.858;37.390;2022-09-03T10:07:38;0.87;;;0.10;;
72601;SDS011;60644;55.858;37.390;2022-09-03T10:12:33;1.90;;;0.20;;
72601;SDS011;60644;55.858;37.390;2022-09-03T10:15:03;2.20;;;0.25;;
72601;SDS011;60644;55.858;37.390;2022-09-03T10:20:35;1.07;;;0.20;;
72601;SDS011;60644;55.858;37.390;2022-09-03T10:25:54;1.45;;;0.30;;
72601;SDS011;60644;55.858;37.390;2022-09-03T10:28:33;2.47;;;0.30;;
72601;SDS011;60644;55.858;37.390;2022-09-03T10:36:50;1.55;;;0.20;;
72601;SDS011;60644;55.858;37.390;2022-09-03T10:39:24;2.15;;;0.30;;
72601;SDS011;60644;55.858;37.390;2022-09-03T11:04:37;1.98;;;0.20;;
72601;SDS011;60644;55.858;37.390;2022-09-03T11:07:13;3.08;;;0.40;;
72601;SDS011;60644;55.858;37.390;2022-09-03T11:09:45;2.60;;;0.30;;
72601;SDS011;60644;55.858;37.390;2022-09-03T11:14:53;2.03;;;0.40;;
72601;SDS011;60644;55.858;37.390;2022-09-03T11:17:27;2.47;;;0.30;;
72601;SDS011;60644;55.858;37.390;2022-09-03T11:19:59;1.58;;;0.30;;
72601;SDS011;60644;55.858;37.390;2022-09-03T11:22:35;1.30;;;0.10;;
72601;SDS011;60644;55.858;37.390;2022-09-03T11:25:03;1.20;;;0.30;;
72601;SDS011;60644;55.858;37.390;2022-09-03T11:27:41;2.53;;;0.40;;
72601;SDS011;60644;55.858;37.390;2022-09-03T11:30:34;2.03;;;0.22;;
72601;SDS011;60644;55.858;37.390;2022-09-03T11:33:08;1.77;;;0.22;;
72601;SDS011;60644;55.858;37.390;2022-09-03T11:35:40;1.85;;;0.32;;
72601;SDS011;60644;55.858;37.390;2022-09-03T11:38:17;2.28;;;0.30;;
72601;SDS011;60644;55.858;37.390;2022-09-03T11:41:02;2.97;;;0.30;;
72601;SDS011;60644;55.858;37.390;2022-09-03T11:43:40;2.25;;;0.30;;
72601;SDS011;60644;55.858;37.390;2022-09-03T11:48:50;1.90;;;0.30;;
72601;SDS011;60644;55.858;37.390;2022-09-03T11:54:01;2.03;;;0.30;;
72601;SDS011;60644;55.858;37.390;2022-09-03T11:56:48;2.88;;;0.30;;
72601;SDS011;60644;55.858;37.390;2022-09-03T12:01:51;1.52;;;0.35;;
72601;SDS011;60644;55.858;37.390;2022-09-03T12:04:30;1.83;;;0.30;;
72601;SDS011;60644;55.858;37.390;2022-09-03T12:13:14;3.92;;;0.50;;
72601;SDS011;60644;55.858;37.390;2022-09-03T12:18:39;1.67;;;0.40;;
72601;SDS011;60644;55.858;37.390;2022-09-03T12:21:06;1.43;;;0.30;;
72601;SDS011;60644;55.858;37.390;2022-09-03T12:23:38;3.65;;;0.30;;
72601;SDS011;60644;55.858;37.390;2022-09-03T12:26:21;2.80;;;0.50;;
72601;SDS011;60644;55.858;37.390;2022-09-03T12:28:51;1.33;;;0.20;;
72601;SDS011;60644;55.858;37.390;2022-09-03T12:33:54;1.30;;;0.30;;
72601;SDS011;60644;55.858;37.390;2022-09-03T12:36:37;1.63;;;0.30;;
72601;SDS011;60644;55.858;37.390;2022-09-03T12:42:00;1.73;;;0.30;;
72601;SDS011;60644;55.858;37.390;2022-09-03T12:47:22;2.43;;;0.40;;
72601;SDS011;60644;55.858;37.390;2022-09-03T12:49:48;1.52;;;0.40;;
72601;SDS011;60644;55.858;37.390;2022-09-03T12:57:23;2.30;;;0.32;;
72601;SDS011;60644;55.858;37.390;2022-09-03T12:59:56;2.53;;;0.50;;
72601;SDS011;60644;55.858;37.390;2022-09-03T13:02:26;3.63;;;0.60;;
72601;SDS011;60644;55.858;37.390;2022-09-03T13:05:00;2.42;;;0.52;;
72601;SDS011;60644;55.858;37.390;2022-09-03T13:07:28;2.08;;;0.50;;
72601;SDS011;60644;55.858;37.390;2022-09-03T13:10:02;2.55;;;0.50;;
72601;SDS011;60644;55.858;37.390;2022-09-03T13:12:32;1.93;;;0.40;;
72601;SDS011;60644;55.858;37.390;2022-09-03T13:15:10;2.30;;;0.28;;
72601;SDS011;60644;55.858;37.390;2022-09-03T13:25:56;2.50;;;0.50;;
72601;SDS011;60644;55.858;37.390;2022-09-03T13:28:36;10.25;;;3.78;;
72601;SDS011;60644;55.858;37.390;2022-09-03T13:31:35;7.25;;;3.22;;
72601;SDS011;60644;55.858;37.390;2022-09-03T13:34:21;12.35;;;5.82;;
72601;SDS011;60644;55.858;37.390;2022-09-03T13:36:58;4.15;;;0.95;;
72601;SDS011;60644;55.858;37.390;2022-09-03T13:39:32;2.60;;;0.60;;
72601;SDS011;60644;55.858;37.390;2022-09-03T13:42:08;3.72;;;0.60;;
72601;SDS011;60644;55.858;37.390;2022-09-03T13:44:46;3.63;;;0.40;;
72601;SDS011;60644;55.858;37.390;2022-09-03T13:50:10;3.85;;;0.80;;
72601;SDS011;60644;55.858;37.390;2022-09-03T13:55:35;2.40;;;0.50;;
72601;SDS011;60644;55.858;37.390;2022-09-03T13:58:30;2.95;;;0.60;;
72601;SDS011;60644;55.858;37.390;2022-09-03T14:01:19;3.22;;;0.60;;
72601;SDS011;60644;55.858;37.390;2022-09-03T14:04:10;2.95;;;0.57;;
72601;SDS011;60644;55.858;37.390;2022-09-03T14:07:06;3.17;;;0.70;;
72601;SDS011;60644;55.858;37.390;2022-09-03T14:12:49;2.65;;;0.60;;
72601;SDS011;60644;55.858;37.390;2022-09-03T14:15:54;1.98;;;0.40;;
72601;SDS011;60644;55.858;37.390;2022-09-03T14:21:21;1.93;;;0.40;;
72601;SDS011;60644;55.858;37.390;2022-09-03T14:26:21;3.63;;;0.50;;
72601;SDS011;60644;55.858;37.390;2022-09-03T14:28:58;3.70;;;0.60;;
72601;SDS011;60644;55.858;37.390;2022-09-03T14:37:02;4.03;;;0.77;;
72601;SDS011;60644;55.858;37.390;2022-09-03T14:50:40;3.25;;;0.43;;
72601;SDS011;60644;55.858;37.390;2022-09-03T14:56:00;2.55;;;0.50;;
72601;SDS011;60644;55.858;37.390;2022-09-03T15:01:31;2.87;;;0.50;;
72601;SDS011;60644;55.858;37.390;2022-09-03T15:12:28;4.20;;;0.50;;
72601;SDS011;60644;55.858;37.390;2022-09-03T15:15:11;5.57;;;1.00;;
72601;SDS011;60644;55.858;37.390;2022-09-03T15:20:18;3.33;;;1.00;;
72601;SDS011;60644;55.858;37.390;2022-09-03T15:28:33;4.93;;;0.80;;
72601;SDS011;60644;55.858;37.390;2022-09-03T15:31:22;4.13;;;0.45;;
72601;SDS011;60644;55.858;37.390;2022-09-03T15:36:45;3.00;;;0.50;;
72601;SDS011;60644;55.858;37.390;2022-09-03T15:39:23;3.42;;;0.60;;
72601;SDS011;60644;55.858;37.390;2022-09-03T15:41:56;4.40;;;0.50;;
72601;SDS011;60644;55.858;37.390;2022-09-03T15:44:34;4.32;;;0.70;;
72601;SDS011;60644;55.858;37.390;2022-09-03T15:47:06;2.65;;;0.50;;
72601;SDS011;60644;55.858;37.390;2022-09-03T15:49:50;3.15;;;0.65;;
72601;SDS011;60644;55.858;37.390;2022-09-03T15:55:29;5.03;;;1.43;;
72601;SDS011;60644;55.858;37.390;2022-09-03T16:00:47;5.10;;;1.23;;
72601;SDS011;60644;55.858;37.390;2022-09-03T16:03:16;8.68;;;1.50;;
72601;SDS011;60644;55.858;37.390;2022-09-03T16:05:47;6.38;;;1.83;;
72601;SDS011;60644;55.858;37.390;2022-09-03T16:08:23;4.50;;;1.07;;
72601;SDS011;60644;55.858;37.390;2022-09-03T16:11:08;4.47;;;1.20;;
72601;SDS011;60644;55.858;37.390;2022-09-03T16:25:03;4.93;;;1.40;;
72601;SDS011;60644;55.858;37.390;2022-09-03T16:27:41;4.10;;;1.00;;
72601;SDS011;60644;55.858;37.390;2022-09-03T16:30:27;6.65;;;2.65;;
72601;SDS011;60644;55.858;37.390;2022-09-03T16:39:34;4.35;;;1.23;;
72601;SDS011;60644;55.858;37.390;2022-09-03T16:47:24;3.85;;;1.02;;
72601;SDS011;60644;55.858;37.390;2022-09-03T16:58:34;5.93;;;1.73;;
72601;SDS011;60644;55.858;37.390;2022-09-03T17:04:06;8.17;;;1.80;;
72601;SDS011;60644;55.858;37.390;2022-09-03T17:06:50;5.47;;;1.63;;
72601;SDS011;60644;55.858;37.390;2022-09-03T17:15:06;4.57;;;1.03;;
72601;SDS011;60644;55.858;37.390;2022-09-03T17:37:07;5.32;;;1.20;;
72601;SDS011;60644;55.858;37.390;2022-09-03T17:45:36;4.15;;;1.10;;
72601;SDS011;60644;55.858;37.390;2022-09-03T17:48:15;4.53;;;1.10;;
72601;SDS011;60644;55.858;37.390;2022-09-03T17:51:02;4.20;;;1.05;;
72601;SDS011;60644;55.858;37.390;2022-09-03T17:53:43;4.50;;;1.20;;
72601;SDS011;60644;55.858;37.390;2022-09-03T17:56:10;4.77;;;1.73;;
72601;SDS011;60644;55.858;37.390;2022-09-03T17:58:50;5.75;;;1.88;;
72601;SDS011;60644;55.858;37.390;2022-09-03T18:01:34;7.25;;;2.83;;
72601;SDS011;60644;55.858;37.390;2022-09-03T18:07:25;4.07;;;1.05;;
72601;SDS011;60644;55.858;37.390;2022-09-03T18:10:17;6.43;;;1.30;;
72601;SDS011;60644;55.858;37.390;2022-09-03T18:13:02;5.70;;;1.50;;
72601;SDS011;60644;55.858;37.390;2022-09-03T18:15:48;5.63;;;1.67;;
72601;SDS011;60644;55.858;37.390;2022-09-03T18:18:23;5.45;;;1.20;;
72601;SDS011;60644;55.858;37.390;2022-09-03T18:20:55;4.20;;;0.90;;
72601;SDS011;60644;55.858;37.390;2022-09-03T18:27:47;4.15;;;0.98;;
72601;SDS011;60644;55.858;37.390;2022-09-03T18:30:26;5.28;;;1.08;;
72601;SDS011;60644;55.858;37.390;2022-09-03T18:33:11;5.30;;;1.80;;
72601;SDS011;60644;55.858;37.390;2022-09-03T18:35:55;5.03;;;1.30;;
72601;SDS011;60644;55.858;37.390;2022-09-03T18:38:42;6.67;;;2.00;;
72601;SDS011;60644;55.858;37.390;2022-09-03T18:57:00;8.10;;;2.53;;
72601;SDS011;60644;55.858;37.390;2022-09-03T19:00:14;7.15;;;1.83;;
72601;SDS011;60644;55.858;37.390;2022-09-03T19:15:06;4.82;;;1.38;;
72601;SDS011;60644;55.858;37.390;2022-09-03T19:18:06;4.70;;;1.40;;
72601;SDS011;60644;55.858;37.390;2022-09-03T19:24:14;6.77;;;1.67;;
72601;SDS011;60644;55.858;37.390;2022-09-03T19:45:44;5.60;;;2.10;;
72601;SDS011;60644;55.858;37.390;2022-09-03T19:52:05;5.43;;;1.88;;
72601;SDS011;60644;55.858;37.390;2022-09-03T19:55:11;6.17;;;1.83;;
72601;SDS011;60644;55.858;37.390;2022-09-03T19:58:04;4.78;;;1.20;;
72601;SDS011;60644;55.858;37.390;2022-09-03T20:00:50;5.57;;;1.50;;
72601;SDS011;60644;55.858;37.390;2022-09-03T20:03:34;6.47;;;2.30;;
72601;SDS011;60644;55.858;37.390;2022-09-03T20:06:19;7.72;;;2.28;;
72601;SDS011;60644;55.858;37.390;2022-09-03T20:09:08;4.83;;;1.70;;
72601;SDS011;60644;55.858;37.390;2022-09-03T20:11:57;5.70;;;1.60;;
72601;SDS011;60644;55.858;37.390;2022-09-03T20:14:27;5.15;;;1.48;;
72601;SDS011;60644;55.858;37.390;2022-09-03T20:22:53;4.50;;;1.20;;
72601;SDS011;60644;55.858;37.390;2022-09-03T20:25:43;5.65;;;1.85;;
72601;SDS011;60644;55.858;37.390;2022-09-03T20:31:25;4.00;;;1.10;;
72601;SDS011;60644;55.858;37.390;2022-09-03T20:41:54;4.30;;;0.90;;
72601;SDS011;60644;55.858;37.390;2022-09-03T20:49:47;6.03;;;2.07;;
72601;SDS011;60644;55.858;37.390;2022-09-03T20:55:47;3.72;;;1.08;;
72601;SDS011;60644;55.858;37.390;2022-09-03T21:00:49;4.72;;;1.20;;
72601;SDS011;60644;55.858;37.390;2022-09-03T21:09:35;5.32;;;1.20;;
72601;SDS011;60644;55.858;37.390;2022-09-03T21:11:40;6.00;;;1.50;;
72601;SDS011;60644;55.858;37.390;2022-09-03T21:25:04;4.57;;;1.33;;
72601;SDS011;60644;55.858;37.390;2022-09-03T21:27:36;4.72;;;1.00;;
72601;SDS011;60644;55.858;37.390;2022-09-03T21:30:11;7.80;;;1.97;;
72601;SDS011;60644;55.858;37.390;2022-09-03T21:35:13;5.68;;;1.85;;
72601;SDS011;60644;55.858;37.390;2022-09-03T21:37:40;4.57;;;1.55;;
72601;SDS011;60644;55.858;37.390;2022-09-03T21:40:15;4.97;;;1.27;;
72601;SDS011;60644;55.858;37.390;2022-09-03T21:42:52;6.60;;;1.30;;
72601;SDS011;60644;55.858;37.390;2022-09-03T21:45:34;5.95;;;1.58;;
72601;SDS011;60644;55.858;37.390;2022-09-03T21:48:09;5.97;;;2.00;;
72601;SDS011;60644;55.858;37.390;2022-09-03T21:50:46;5.97;;;1.75;;